sensor_id;sensor_type;location;lat;lon;timestamp;temperature;humidity
46283;DHT22;32017;43.700;11.820;2022-08-03T00:01:35;20.60;99.90
46283;DHT22;32017;43.700;11.820;2022-08-03T00:03:37;20.50;99.90
46283;DHT22;32017;43.700;11.820;2022-08-03T00:05:39;20.40;99.90
46283;DHT22;32017;43.700;11.820;2022-08-03T00:07:41;20.40;99.90
46283;DHT22;32017;43.700;11.820;2022-08-03T00:09:43;20.30;99.90
46283;DHT22;32017;43.700;11.820;2022-08-03T00:11:45;20.30;99.90
46283;DHT22;32017;43.700;11.820;2022-08-03T00:13:47;20.20;99.90
46283;DHT22;32017;43.700;11.820;2022-08-03T00:15:49;20.20;99.90
46283;DHT22;32017;43.700;11.820;2022-08-03T00:17:51;20.10;99.90
46283;DHT22;32017;43.700;11.820;2022-08-03T00:19:54;20.10;99.90
46283;DHT22;32017;43.700;11.820;2022-08-03T00:21:56;20.10;99.90
46283;DHT22;32017;43.700;11.820;2022-08-03T00:23:58;20.00;99.90
46283;DHT22;32017;43.700;11.820;2022-08-03T00:26:00;19.80;99.90
46283;DHT22;32017;43.700;11.820;2022-08-03T00:28:03;19.90;99.90
46283;DHT22;32017;43.700;11.820;2022-08-03T00:30:05;20.10;99.90
46283;DHT22;32017;43.700;11.820;2022-08-03T00:32:07;20.10;99.90
46283;DHT22;32017;43.700;11.820;2022-08-03T00:34:11;20.20;99.90
46283;DHT22;32017;43.700;11.820;2022-08-03T00:36:13;20.20;99.90
46283;DHT22;32017;43.700;11.820;2022-08-03T00:38:15;20.10;99.90
46283;DHT22;32017;43.700;11.820;2022-08-03T00:40:17;20.20;99.90
46283;DHT22;32017;43.700;11.820;2022-08-03T00:42:19;20.20;99.90
46283;DHT22;32017;43.700;11.820;2022-08-03T00:44:21;20.20;99.90
46283;DHT22;32017;43.700;11.820;2022-08-03T00:46:23;20.20;99.90
46283;DHT22;32017;43.700;11.820;2022-08-03T00:48:25;20.20;99.90
46283;DHT22;32017;43.700;11.820;2022-08-03T00:50:34;20.10;99.90
46283;DHT22;32017;43.700;11.820;2022-08-03T00:52:36;20.00;99.90
46283;DHT22;32017;43.700;11.820;2022-08-03T00:54:38;19.90;99.90
46283;DHT22;32017;43.700;11.820;2022-08-03T00:56:41;19.80;99.90
46283;DHT22;32017;43.700;11.820;2022-08-03T00:59:00;19.60;99.90
46283;DHT22;32017;43.700;11.820;2022-08-03T01:01:02;19.50;99.90
46283;DHT22;32017;43.700;11.820;2022-08-03T01:03:08;19.60;99.90
46283;DHT22;32017;43.700;11.820;2022-08-03T01:05:10;19.70;99.90
46283;DHT22;32017;43.700;11.820;2022-08-03T01:09:22;19.80;99.90
46283;DHT22;32017;43.700;11.820;2022-08-03T01:12:09;19.80;99.90
46283;DHT22;32017;43.700;11.820;2022-08-03T01:14:03;19.60;99.90
46283;DHT22;32017;43.700;11.820;2022-08-03T01:16:26;19.60;99.90
46283;DHT22;32017;43.700;11.820;2022-08-03T01:18:54;19.60;99.90
46283;DHT22;32017;43.700;11.820;2022-08-03T01:20:58;19.50;99.90
46283;DHT22;32017;43.700;11.820;2022-08-03T01:23:05;19.50;99.90
46283;DHT22;32017;43.700;11.820;2022-08-03T01:32:01;19.20;99.90
46283;DHT22;32017;43.700;11.820;2022-08-03T01:34:24;19.10;99.90
46283;DHT22;32017;43.700;11.820;2022-08-03T01:36:31;19.10;99.90
46283;DHT22;32017;43.700;11.820;2022-08-03T01:38:35;19.10;99.90
46283;DHT22;32017;43.700;11.820;2022-08-03T01:40:39;19.00;99.90
46283;DHT22;32017;43.700;11.820;2022-08-03T01:42:42;18.90;99.90
46283;DHT22;32017;43.700;11.820;2022-08-03T01:44:45;18.90;99.90
46283;DHT22;32017;43.700;11.820;2022-08-03T01:46:49;18.80;99.90
46283;DHT22;32017;43.700;11.820;2022-08-03T01:48:52;18.70;99.90
46283;DHT22;32017;43.700;11.820;2022-08-03T01:50:54;18.60;99.90
46283;DHT22;32017;43.700;11.820;2022-08-03T01:52:56;18.60;99.90
46283;DHT22;32017;43.700;11.820;2022-08-03T01:54:59;18.60;99.90
46283;DHT22;32017;43.700;11.820;2022-08-03T01:57:02;18.60;99.90
46283;DHT22;32017;43.700;11.820;2022-08-03T01:59:04;18.60;99.90
46283;DHT22;32017;43.700;11.820;2022-08-03T02:01:07;18.60;99.90
46283;DHT22;32017;43.700;11.820;2022-08-03T02:03:11;18.60;99.90
46283;DHT22;32017;43.700;11.820;2022-08-03T02:05:14;18.50;99.90
46283;DHT22;32017;43.700;11.820;2022-08-03T02:07:16;18.50;99.90
46283;DHT22;32017;43.700;11.820;2022-08-03T02:09:19;18.60;99.90
46283;DHT22;32017;43.700;11.820;2022-08-03T02:11:21;18.60;99.90
46283;DHT22;32017;43.700;11.820;2022-08-03T02:13:24;18.70;99.90
46283;DHT22;32017;43.700;11.820;2022-08-03T02:15:27;18.60;99.90
46283;DHT22;32017;43.700;11.820;2022-08-03T02:17:29;18.70;99.90
46283;DHT22;32017;43.700;11.820;2022-08-03T02:19:41;18.70;99.90
46283;DHT22;32017;43.700;11.820;2022-08-03T02:21:44;18.70;99.90
46283;DHT22;32017;43.700;11.820;2022-08-03T02:23:58;18.60;99.90
46283;DHT22;32017;43.700;11.820;2022-08-03T02:26:01;18.70;99.90
46283;DHT22;32017;43.700;11.820;2022-08-03T02:28:09;18.70;99.90
46283;DHT22;32017;43.700;11.820;2022-08-03T02:30:11;18.70;99.90
46283;DHT22;32017;43.700;11.820;2022-08-03T02:32:16;18.60;99.90
46283;DHT22;32017;43.700;11.820;2022-08-03T02:34:18;18.60;99.90
46283;DHT22;32017;43.700;11.820;2022-08-03T02:36:27;18.60;99.90
46283;DHT22;32017;43.700;11.820;2022-08-03T02:38:35;18.60;99.90
46283;DHT22;32017;43.700;11.820;2022-08-03T02:40:37;18.60;99.90
46283;DHT22;32017;43.700;11.820;2022-08-03T02:42:40;18.60;99.90
46283;DHT22;32017;43.700;11.820;2022-08-03T02:44:44;18.60;99.90
46283;DHT22;32017;43.700;11.820;2022-08-03T02:46:49;18.60;99.90
46283;DHT22;32017;43.700;11.820;2022-08-03T02:48:54;18.60;99.90
46283;DHT22;32017;43.700;11.820;2022-08-03T02:50:57;18.60;99.90
46283;DHT22;32017;43.700;11.820;2022-08-03T02:53:00;18.50;99.90
46283;DHT22;32017;43.700;11.820;2022-08-03T02:55:02;18.50;99.90
46283;DHT22;32017;43.700;11.820;2022-08-03T02:57:08;18.50;99.90
46283;DHT22;32017;43.700;11.820;2022-08-03T02:59:10;18.50;99.90
46283;DHT22;32017;43.700;11.820;2022-08-03T03:01:13;18.50;99.90
46283;DHT22;32017;43.700;11.820;2022-08-03T03:03:15;18.50;99.90
46283;DHT22;32017;43.700;11.820;2022-08-03T03:05:17;18.40;99.90
46283;DHT22;32017;43.700;11.820;2022-08-03T03:07:39;18.40;99.90
46283;DHT22;32017;43.700;11.820;2022-08-03T03:09:53;18.40;99.90
46283;DHT22;32017;43.700;11.820;2022-08-03T03:11:55;18.40;99.90
46283;DHT22;32017;43.700;11.820;2022-08-03T03:13:57;18.30;99.90
46283;DHT22;32017;43.700;11.820;2022-08-03T03:16:01;18.20;99.90
46283;DHT22;32017;43.700;11.820;2022-08-03T03:18:04;18.30;99.90
46283;DHT22;32017;43.700;11.820;2022-08-03T03:20:07;18.20;99.90
46283;DHT22;32017;43.700;11.820;2022-08-03T03:22:10;18.20;99.90
46283;DHT22;32017;43.700;11.820;2022-08-03T03:24:13;18.20;99.90
46283;DHT22;32017;43.700;11.820;2022-08-03T03:26:15;18.20;99.90
46283;DHT22;32017;43.700;11.820;2022-08-03T03:28:17;18.10;99.90
46283;DHT22;32017;43.700;11.820;2022-08-03T03:30:20;18.10;99.90
46283;DHT22;32017;43.700;11.820;2022-08-03T03:32:21;18.10;99.90
46283;DHT22;32017;43.700;11.820;2022-08-03T03:34:23;18.10;99.90
46283;DHT22;32017;43.700;11.820;2022-08-03T03:36:26;18.00;99.90
46283;DHT22;32017;43.700;11.820;2022-08-03T03:38:28;17.90;99.90
46283;DHT22;32017;43.700;11.820;2022-08-03T03:40:29;17.90;99.90
46283;DHT22;32017;43.700;11.820;2022-08-03T03:42:31;17.90;99.90
46283;DHT22;32017;43.700;11.820;2022-08-03T03:44:34;17.80;99.90
46283;DHT22;32017;43.700;11.820;2022-08-03T03:46:36;17.70;99.90
46283;DHT22;32017;43.700;11.820;2022-08-03T03:48:38;17.70;99.90
46283;DHT22;32017;43.700;11.820;2022-08-03T03:50:40;17.60;99.90
46283;DHT22;32017;43.700;11.820;2022-08-03T03:52:44;17.50;99.90
46283;DHT22;32017;43.700;11.820;2022-08-03T03:54:46;17.50;99.90
46283;DHT22;32017;43.700;11.820;2022-08-03T03:56:48;17.50;99.90
46283;DHT22;32017;43.700;11.820;2022-08-03T03:58:50;17.50;99.90
46283;DHT22;32017;43.700;11.820;2022-08-03T04:00:52;17.50;99.90
46283;DHT22;32017;43.700;11.820;2022-08-03T04:02:54;17.40;99.90
46283;DHT22;32017;43.700;11.820;2022-08-03T04:04:56;17.40;99.90
46283;DHT22;32017;43.700;11.820;2022-08-03T04:07:17;17.40;99.90
46283;DHT22;32017;43.700;11.820;2022-08-03T04:09:39;17.30;99.90
46283;DHT22;32017;43.700;11.820;2022-08-03T04:12:08;17.50;99.90
46283;DHT22;32017;43.700;11.820;2022-08-03T04:16:26;17.40;99.90
46283;DHT22;32017;43.700;11.820;2022-08-03T04:18:39;17.50;99.90
46283;DHT22;32017;43.700;11.820;2022-08-03T04:20:44;17.50;99.90
46283;DHT22;32017;43.700;11.820;2022-08-03T04:22:49;17.50;99.90
46283;DHT22;32017;43.700;11.820;2022-08-03T04:25:10;17.50;99.90
46283;DHT22;32017;43.700;11.820;2022-08-03T04:27:23;17.50;99.90
46283;DHT22;32017;43.700;11.820;2022-08-03T04:29:26;17.60;99.90
46283;DHT22;32017;43.700;11.820;2022-08-03T04:31:32;17.60;99.90
46283;DHT22;32017;43.700;11.820;2022-08-03T04:33:37;17.50;99.90
46283;DHT22;32017;43.700;11.820;2022-08-03T04:35:41;17.50;99.90
46283;DHT22;32017;43.700;11.820;2022-08-03T04:38:06;17.50;99.90
46283;DHT22;32017;43.700;11.820;2022-08-03T04:40:10;17.50;99.90
46283;DHT22;32017;43.700;11.820;2022-08-03T04:42:14;17.50;99.90
46283;DHT22;32017;43.700;11.820;2022-08-03T04:44:17;17.50;99.90
46283;DHT22;32017;43.700;11.820;2022-08-03T04:46:26;17.50;99.90
46283;DHT22;32017;43.700;11.820;2022-08-03T04:48:30;17.50;99.90
46283;DHT22;32017;43.700;11.820;2022-08-03T04:50:32;17.60;99.90
46283;DHT22;32017;43.700;11.820;2022-08-03T04:52:35;17.60;99.90
46283;DHT22;32017;43.700;11.820;2022-08-03T04:54:41;17.60;99.90
46283;DHT22;32017;43.700;11.820;2022-08-03T04:56:50;17.60;99.90
46283;DHT22;32017;43.700;11.820;2022-08-03T04:58:52;17.70;99.90
46283;DHT22;32017;43.700;11.820;2022-08-03T05:00:55;17.70;99.90
46283;DHT22;32017;43.700;11.820;2022-08-03T05:02:59;17.70;99.90
46283;DHT22;32017;43.700;11.820;2022-08-03T05:05:03;17.80;99.90
46283;DHT22;32017;43.700;11.820;2022-08-03T05:07:05;17.80;99.90
46283;DHT22;32017;43.700;11.820;2022-08-03T05:09:21;18.00;99.90
46283;DHT22;32017;43.700;11.820;2022-08-03T05:11:46;18.00;99.90
46283;DHT22;32017;43.700;11.820;2022-08-03T05:13:49;18.00;99.90
46283;DHT22;32017;43.700;11.820;2022-08-03T05:15:52;18.00;99.90
46283;DHT22;32017;43.700;11.820;2022-08-03T05:17:55;18.00;99.90
46283;DHT22;32017;43.700;11.820;2022-08-03T05:19:57;18.10;99.90
46283;DHT22;32017;43.700;11.820;2022-08-03T05:21:59;18.10;99.90
46283;DHT22;32017;43.700;11.820;2022-08-03T05:24:03;18.20;99.90
46283;DHT22;32017;43.700;11.820;2022-08-03T05:26:06;18.30;99.90
46283;DHT22;32017;43.700;11.820;2022-08-03T05:28:09;18.40;99.90
46283;DHT22;32017;43.700;11.820;2022-08-03T05:30:11;18.40;99.90
46283;DHT22;32017;43.700;11.820;2022-08-03T05:32:34;18.50;99.90
46283;DHT22;32017;43.700;11.820;2022-08-03T05:34:54;18.50;99.90
46283;DHT22;32017;43.700;11.820;2022-08-03T05:36:58;18.60;99.90
46283;DHT22;32017;43.700;11.820;2022-08-03T05:39:00;18.60;99.90
46283;DHT22;32017;43.700;11.820;2022-08-03T05:41:04;18.60;99.90
46283;DHT22;32017;43.700;11.820;2022-08-03T05:43:24;18.60;99.90
46283;DHT22;32017;43.700;11.820;2022-08-03T05:45:27;18.70;99.90
46283;DHT22;32017;43.700;11.820;2022-08-03T05:47:30;18.70;99.90
46283;DHT22;32017;43.700;11.820;2022-08-03T05:49:33;18.70;99.90
46283;DHT22;32017;43.700;11.820;2022-08-03T05:51:46;18.70;99.90
46283;DHT22;32017;43.700;11.820;2022-08-03T05:53:49;18.80;99.90
46283;DHT22;32017;43.700;11.820;2022-08-03T05:55:53;19.20;99.90
46283;DHT22;32017;43.700;11.820;2022-08-03T05:57:59;19.20;99.90
46283;DHT22;32017;43.700;11.820;2022-08-03T06:00:06;19.40;99.90
46283;DHT22;32017;43.700;11.820;2022-08-03T06:02:08;19.40;99.90
46283;DHT22;32017;43.700;11.820;2022-08-03T06:04:11;19.40;99.90
46283;DHT22;32017;43.700;11.820;2022-08-03T06:06:14;19.40;99.90
46283;DHT22;32017;43.700;11.820;2022-08-03T06:08:16;19.70;99.90
46283;DHT22;32017;43.700;11.820;2022-08-03T06:10:18;19.70;99.90
46283;DHT22;32017;43.700;11.820;2022-08-03T06:12:36;19.90;99.90
46283;DHT22;32017;43.700;11.820;2022-08-03T06:14:40;20.40;99.90
46283;DHT22;32017;43.700;11.820;2022-08-03T06:16:43;20.30;99.90
46283;DHT22;32017;43.700;11.820;2022-08-03T06:18:46;20.20;99.90
46283;DHT22;32017;43.700;11.820;2022-08-03T06:20:49;20.30;99.90
46283;DHT22;32017;43.700;11.820;2022-08-03T06:22:52;20.40;99.90
46283;DHT22;32017;43.700;11.820;2022-08-03T06:25:01;20.40;99.90
46283;DHT22;32017;43.700;11.820;2022-08-03T06:27:04;20.50;99.90
46283;DHT22;32017;43.700;11.820;2022-08-03T06:29:06;20.50;99.90
46283;DHT22;32017;43.700;11.820;2022-08-03T06:31:10;20.60;99.90
46283;DHT22;32017;43.700;11.820;2022-08-03T06:33:12;20.70;99.90
46283;DHT22;32017;43.700;11.820;2022-08-03T06:35:18;20.80;99.90
46283;DHT22;32017;43.700;11.820;2022-08-03T06:37:19;20.80;99.90
46283;DHT22;32017;43.700;11.820;2022-08-03T06:39:22;20.90;99.90
46283;DHT22;32017;43.700;11.820;2022-08-03T06:41:25;21.00;99.90
46283;DHT22;32017;43.700;11.820;2022-08-03T06:43:27;21.10;99.90
46283;DHT22;32017;43.700;11.820;2022-08-03T06:45:28;21.30;99.90
46283;DHT22;32017;43.700;11.820;2022-08-03T06:47:32;21.50;99.90
46283;DHT22;32017;43.700;11.820;2022-08-03T06:49:35;21.70;99.90
46283;DHT22;32017;43.700;11.820;2022-08-03T06:51:37;22.00;99.90
46283;DHT22;32017;43.700;11.820;2022-08-03T06:53:59;22.10;99.90
46283;DHT22;32017;43.700;11.820;2022-08-03T06:56:03;22.20;99.90
46283;DHT22;32017;43.700;11.820;2022-08-03T06:58:06;22.30;99.90
46283;DHT22;32017;43.700;11.820;2022-08-03T07:00:08;22.50;99.90
46283;DHT22;32017;43.700;11.820;2022-08-03T07:02:15;22.80;99.90
46283;DHT22;32017;43.700;11.820;2022-08-03T07:04:21;23.00;99.90
46283;DHT22;32017;43.700;11.820;2022-08-03T07:06:24;23.20;99.90
46283;DHT22;32017;43.700;11.820;2022-08-03T07:08:26;23.50;99.90
46283;DHT22;32017;43.700;11.820;2022-08-03T07:10:55;23.60;99.90
46283;DHT22;32017;43.700;11.820;2022-08-03T07:12:57;23.70;99.90
46283;DHT22;32017;43.700;11.820;2022-08-03T07:15:00;23.70;99.90
46283;DHT22;32017;43.700;11.820;2022-08-03T07:17:03;23.80;99.90
46283;DHT22;32017;43.700;11.820;2022-08-03T07:19:14;23.90;99.90
46283;DHT22;32017;43.700;11.820;2022-08-03T07:21:30;24.10;99.90
46283;DHT22;32017;43.700;11.820;2022-08-03T07:23:33;24.40;99.90
46283;DHT22;32017;43.700;11.820;2022-08-03T07:25:37;24.50;99.90
46283;DHT22;32017;43.700;11.820;2022-08-03T07:27:42;24.70;99.90
46283;DHT22;32017;43.700;11.820;2022-08-03T07:29:44;24.80;99.90
46283;DHT22;32017;43.700;11.820;2022-08-03T07:31:48;24.80;99.90
46283;DHT22;32017;43.700;11.820;2022-08-03T07:33:51;24.90;99.90
46283;DHT22;32017;43.700;11.820;2022-08-03T07:35:54;25.10;99.90
46283;DHT22;32017;43.700;11.820;2022-08-03T07:37:55;25.30;99.90
46283;DHT22;32017;43.700;11.820;2022-08-03T07:39:59;25.40;99.90
46283;DHT22;32017;43.700;11.820;2022-08-03T07:42:01;25.50;99.90
46283;DHT22;32017;43.700;11.820;2022-08-03T07:44:05;25.60;99.90
46283;DHT22;32017;43.700;11.820;2022-08-03T07:46:08;25.70;99.90
46283;DHT22;32017;43.700;11.820;2022-08-03T07:48:13;25.90;99.90
46283;DHT22;32017;43.700;11.820;2022-08-03T07:50:15;26.30;99.90
46283;DHT22;32017;43.700;11.820;2022-08-03T07:52:18;26.60;99.90
46283;DHT22;32017;43.700;11.820;2022-08-03T07:54:39;27.00;99.90
46283;DHT22;32017;43.700;11.820;2022-08-03T07:56:41;27.10;99.90
46283;DHT22;32017;43.700;11.820;2022-08-03T07:58:46;27.60;99.90
46283;DHT22;32017;43.700;11.820;2022-08-03T08:00:49;27.60;99.90
46283;DHT22;32017;43.700;11.820;2022-08-03T08:02:54;27.60;99.90
46283;DHT22;32017;43.700;11.820;2022-08-03T08:04:56;27.90;99.90
46283;DHT22;32017;43.700;11.820;2022-08-03T08:07:04;28.00;99.90
46283;DHT22;32017;43.700;11.820;2022-08-03T08:09:09;28.20;99.90
46283;DHT22;32017;43.700;11.820;2022-08-03T08:11:14;28.10;99.90
46283;DHT22;32017;43.700;11.820;2022-08-03T08:13:16;28.20;99.90
46283;DHT22;32017;43.700;11.820;2022-08-03T08:15:18;28.60;99.90
46283;DHT22;32017;43.700;11.820;2022-08-03T08:17:21;28.70;99.90
46283;DHT22;32017;43.700;11.820;2022-08-03T08:19:24;28.80;99.90
46283;DHT22;32017;43.700;11.820;2022-08-03T08:21:27;28.70;99.90
46283;DHT22;32017;43.700;11.820;2022-08-03T08:23:49;28.90;98.90
46283;DHT22;32017;43.700;11.820;2022-08-03T08:25:58;29.10;99.40
46283;DHT22;32017;43.700;11.820;2022-08-03T08:28:01;29.20;97.70
46283;DHT22;32017;43.700;11.820;2022-08-03T08:30:24;29.60;97.90
46283;DHT22;32017;43.700;11.820;2022-08-03T08:32:26;29.80;98.30
46283;DHT22;32017;43.700;11.820;2022-08-03T08:34:30;29.90;97.60
46283;DHT22;32017;43.700;11.820;2022-08-03T08:36:32;29.70;95.70
46283;DHT22;32017;43.700;11.820;2022-08-03T08:38:34;29.40;95.60
46283;DHT22;32017;43.700;11.820;2022-08-03T08:40:36;29.40;95.70
46283;DHT22;32017;43.700;11.820;2022-08-03T08:42:39;29.40;95.80
46283;DHT22;32017;43.700;11.820;2022-08-03T08:44:53;29.50;95.10
46283;DHT22;32017;43.700;11.820;2022-08-03T08:46:58;29.70;93.00
46283;DHT22;32017;43.700;11.820;2022-08-03T08:49:02;29.80;92.50
46283;DHT22;32017;43.700;11.820;2022-08-03T08:51:06;29.90;91.60
46283;DHT22;32017;43.700;11.820;2022-08-03T08:53:09;30.10;92.00
46283;DHT22;32017;43.700;11.820;2022-08-03T08:55:21;30.10;91.10
46283;DHT22;32017;43.700;11.820;2022-08-03T08:57:25;30.20;91.30
46283;DHT22;32017;43.700;11.820;2022-08-03T08:59:45;29.90;90.70
46283;DHT22;32017;43.700;11.820;2022-08-03T09:01:49;30.00;91.30
46283;DHT22;32017;43.700;11.820;2022-08-03T09:03:51;30.10;90.30
46283;DHT22;32017;43.700;11.820;2022-08-03T09:05:55;30.10;90.20
46283;DHT22;32017;43.700;11.820;2022-08-03T09:07:58;30.50;90.10
46283;DHT22;32017;43.700;11.820;2022-08-03T09:10:20;30.70;91.00
46283;DHT22;32017;43.700;11.820;2022-08-03T09:12:22;30.80;91.20
46283;DHT22;32017;43.700;11.820;2022-08-03T09:14:43;30.90;89.10
46283;DHT22;32017;43.700;11.820;2022-08-03T09:17:02;30.80;87.10
46283;DHT22;32017;43.700;11.820;2022-08-03T09:19:12;31.20;90.20
46283;DHT22;32017;43.700;11.820;2022-08-03T09:23:44;31.30;86.80
46283;DHT22;32017;43.700;11.820;2022-08-03T09:26:03;31.40;87.80
46283;DHT22;32017;43.700;11.820;2022-08-03T09:28:15;31.30;86.40
46283;DHT22;32017;43.700;11.820;2022-08-03T09:30:41;31.50;89.40
46283;DHT22;32017;43.700;11.820;2022-08-03T09:32:43;31.40;85.90
46283;DHT22;32017;43.700;11.820;2022-08-03T09:34:50;31.40;87.70
46283;DHT22;32017;43.700;11.820;2022-08-03T09:36:55;31.50;82.70
46283;DHT22;32017;43.700;11.820;2022-08-03T09:39:03;31.20;85.90
46283;DHT22;32017;43.700;11.820;2022-08-03T09:41:16;31.50;84.80
46283;DHT22;32017;43.700;11.820;2022-08-03T09:43:19;31.50;81.70
46283;DHT22;32017;43.700;11.820;2022-08-03T09:45:26;31.50;82.50
46283;DHT22;32017;43.700;11.820;2022-08-03T09:47:34;31.80;85.10
46283;DHT22;32017;43.700;11.820;2022-08-03T09:49:55;32.00;84.70
46283;DHT22;32017;43.700;11.820;2022-08-03T09:52:10;32.10;83.40
46283;DHT22;32017;43.700;11.820;2022-08-03T09:54:34;32.20;81.60
46283;DHT22;32017;43.700;11.820;2022-08-03T09:56:44;32.10;82.50
46283;DHT22;32017;43.700;11.820;2022-08-03T09:58:50;31.80;79.10
46283;DHT22;32017;43.700;11.820;2022-08-03T10:03:03;32.10;81.00
46283;DHT22;32017;43.700;11.820;2022-08-03T10:05:07;32.50;79.60
46283;DHT22;32017;43.700;11.820;2022-08-03T10:07:11;32.50;80.50
46283;DHT22;32017;43.700;11.820;2022-08-03T10:09:14;32.40;80.70
46283;DHT22;32017;43.700;11.820;2022-08-03T10:11:30;32.50;79.80
46283;DHT22;32017;43.700;11.820;2022-08-03T10:13:37;32.70;77.00
46283;DHT22;32017;43.700;11.820;2022-08-03T10:15:43;32.70;76.60
46283;DHT22;32017;43.700;11.820;2022-08-03T10:18:08;32.40;78.50
46283;DHT22;32017;43.700;11.820;2022-08-03T10:20:11;32.60;78.00
46283;DHT22;32017;43.700;11.820;2022-08-03T10:22:14;32.90;79.70
46283;DHT22;32017;43.700;11.820;2022-08-03T10:24:23;32.80;77.90
46283;DHT22;32017;43.700;11.820;2022-08-03T10:26:27;32.60;78.00
46283;DHT22;32017;43.700;11.820;2022-08-03T10:28:35;32.90;76.00
46283;DHT22;32017;43.700;11.820;2022-08-03T10:30:49;33.10;80.00
46283;DHT22;32017;43.700;11.820;2022-08-03T10:32:54;33.50;77.30
46283;DHT22;32017;43.700;11.820;2022-08-03T10:35:00;33.30;75.80
46283;DHT22;32017;43.700;11.820;2022-08-03T10:37:21;33.40;75.40
46283;DHT22;32017;43.700;11.820;2022-08-03T10:39:26;33.30;74.30
46283;DHT22;32017;43.700;11.820;2022-08-03T10:41:35;33.30;73.80
46283;DHT22;32017;43.700;11.820;2022-08-03T10:44:22;33.30;74.00
46283;DHT22;32017;43.700;11.820;2022-08-03T10:46:06;33.50;75.60
46283;DHT22;32017;43.700;11.820;2022-08-03T10:48:09;33.20;73.70
46283;DHT22;32017;43.700;11.820;2022-08-03T10:50:11;33.50;74.80
46283;DHT22;32017;43.700;11.820;2022-08-03T10:52:13;33.20;73.40
46283;DHT22;32017;43.700;11.820;2022-08-03T10:56:39;33.40;76.50
46283;DHT22;32017;43.700;11.820;2022-08-03T10:59:04;33.60;75.00
46283;DHT22;32017;43.700;11.820;2022-08-03T11:01:10;33.60;74.40
46283;DHT22;32017;43.700;11.820;2022-08-03T11:03:12;34.00;75.60
46283;DHT22;32017;43.700;11.820;2022-08-03T11:05:28;33.60;72.70
46283;DHT22;32017;43.700;11.820;2022-08-03T11:07:31;33.40;72.70
46283;DHT22;32017;43.700;11.820;2022-08-03T11:09:40;33.40;71.30
46283;DHT22;32017;43.700;11.820;2022-08-03T11:11:46;33.40;74.00
46283;DHT22;32017;43.700;11.820;2022-08-03T11:13:57;33.90;76.90
46283;DHT22;32017;43.700;11.820;2022-08-03T11:16:02;34.40;71.60
46283;DHT22;32017;43.700;11.820;2022-08-03T11:18:10;34.30;71.50
46283;DHT22;32017;43.700;11.820;2022-08-03T11:20:27;34.40;71.90
46283;DHT22;32017;43.700;11.820;2022-08-03T11:22:47;34.10;71.90
46283;DHT22;32017;43.700;11.820;2022-08-03T11:29:27;34.30;70.40
46283;DHT22;32017;43.700;11.820;2022-08-03T11:34:07;34.20;70.10
46283;DHT22;32017;43.700;11.820;2022-08-03T11:36:18;34.20;72.20
46283;DHT22;32017;43.700;11.820;2022-08-03T11:38:34;33.80;67.50
46283;DHT22;32017;43.700;11.820;2022-08-03T11:40:56;33.60;69.70
46283;DHT22;32017;43.700;11.820;2022-08-03T11:42:58;33.90;68.50
46283;DHT22;32017;43.700;11.820;2022-08-03T11:45:02;34.10;70.70
46283;DHT22;32017;43.700;11.820;2022-08-03T11:47:07;34.30;67.20
46283;DHT22;32017;43.700;11.820;2022-08-03T11:49:17;33.20;68.60
46283;DHT22;32017;43.700;11.820;2022-08-03T11:51:27;33.30;70.20
46283;DHT22;32017;43.700;11.820;2022-08-03T11:53:30;33.70;71.50
46283;DHT22;32017;43.700;11.820;2022-08-03T11:55:52;34.40;71.30
46283;DHT22;32017;43.700;11.820;2022-08-03T11:57:57;34.80;68.30
46283;DHT22;32017;43.700;11.820;2022-08-03T12:00:20;34.90;66.50
46283;DHT22;32017;43.700;11.820;2022-08-03T12:02:23;34.80;65.60
46283;DHT22;32017;43.700;11.820;2022-08-03T12:04:25;34.50;66.50
46283;DHT22;32017;43.700;11.820;2022-08-03T12:06:29;34.70;66.80
46283;DHT22;32017;43.700;11.820;2022-08-03T12:08:32;34.70;65.80
46283;DHT22;32017;43.700;11.820;2022-08-03T12:10:36;34.70;65.80
46283;DHT22;32017;43.700;11.820;2022-08-03T12:12:40;34.60;64.20
46283;DHT22;32017;43.700;11.820;2022-08-03T12:14:48;34.60;65.90
46283;DHT22;32017;43.700;11.820;2022-08-03T12:16:53;34.40;65.20
46283;DHT22;32017;43.700;11.820;2022-08-03T12:18:59;34.30;68.40
46283;DHT22;32017;43.700;11.820;2022-08-03T12:21:06;34.50;66.20
46283;DHT22;32017;43.700;11.820;2022-08-03T12:23:09;34.90;68.30
46283;DHT22;32017;43.700;11.820;2022-08-03T12:25:19;34.90;65.60
46283;DHT22;32017;43.700;11.820;2022-08-03T12:27:43;34.90;65.90
46283;DHT22;32017;43.700;11.820;2022-08-03T12:29:45;35.20;66.60
46283;DHT22;32017;43.700;11.820;2022-08-03T12:32:00;35.50;69.80
46283;DHT22;32017;43.700;11.820;2022-08-03T12:34:07;35.40;64.70
46283;DHT22;32017;43.700;11.820;2022-08-03T12:36:10;34.40;67.50
46283;DHT22;32017;43.700;11.820;2022-08-03T12:38:12;34.30;65.40
46283;DHT22;32017;43.700;11.820;2022-08-03T12:40:23;34.80;65.30
46283;DHT22;32017;43.700;11.820;2022-08-03T12:42:32;34.60;65.10
46283;DHT22;32017;43.700;11.820;2022-08-03T12:44:36;34.80;64.40
46283;DHT22;32017;43.700;11.820;2022-08-03T12:46:39;35.20;69.30
46283;DHT22;32017;43.700;11.820;2022-08-03T12:51:08;34.90;65.90
46283;DHT22;32017;43.700;11.820;2022-08-03T12:53:12;35.20;66.60
46283;DHT22;32017;43.700;11.820;2022-08-03T12:55:29;35.60;64.10
46283;DHT22;32017;43.700;11.820;2022-08-03T12:58:12;35.90;64.70
46283;DHT22;32017;43.700;11.820;2022-08-03T13:00:30;35.90;64.10
46283;DHT22;32017;43.700;11.820;2022-08-03T13:02:40;35.60;62.80
46283;DHT22;32017;43.700;11.820;2022-08-03T13:04:48;35.30;64.10
46283;DHT22;32017;43.700;11.820;2022-08-03T13:06:57;34.90;62.60
46283;DHT22;32017;43.700;11.820;2022-08-03T13:09:05;34.80;64.10
46283;DHT22;32017;43.700;11.820;2022-08-03T13:11:19;34.80;64.10
46283;DHT22;32017;43.700;11.820;2022-08-03T13:13:38;34.90;64.50
46283;DHT22;32017;43.700;11.820;2022-08-03T13:15:40;34.80;62.00
46283;DHT22;32017;43.700;11.820;2022-08-03T13:17:51;35.20;69.00
46283;DHT22;32017;43.700;11.820;2022-08-03T13:19:53;35.20;62.70
46283;DHT22;32017;43.700;11.820;2022-08-03T13:22:17;35.20;64.20
46283;DHT22;32017;43.700;11.820;2022-08-03T13:24:20;35.20;64.20
46283;DHT22;32017;43.700;11.820;2022-08-03T13:26:22;35.20;63.10
46283;DHT22;32017;43.700;11.820;2022-08-03T13:28:25;35.30;62.60
46283;DHT22;32017;43.700;11.820;2022-08-03T13:30:27;35.40;61.50
46283;DHT22;32017;43.700;11.820;2022-08-03T13:32:32;35.50;60.30
46283;DHT22;32017;43.700;11.820;2022-08-03T13:34:40;35.40;62.30